Grass Valley, CA (95945)

7:56 PM PDT on October 24, 2014 (GMT -0700)
Jones Ridge | Change Station
CLOSE
Current Station
Personal Weather Station
Location: Grass Valley, CA
Elevation: 3061 ft
Nearby Weather Stations

Elev 3061 ft 39.22 °N, 120.94 °W | Updated 8 seconds ago

Clear
Clear
59.7 °F
Feels Like 59.7 °F
N
0.0
Wind Variable Wind from SSW
Gusts 0.0 mph

Today
High -- | Low -- °F
--% Chance of Precip.
Yesterday
High -- | Low -- °F
Precip. -- in
7:22 AM 6:12 PM
New Moon, 2% visible
Pressure 29.91 in
Visibility 10.0 miles
Clouds Clear
Dew Point 48 °F
Humidity 65%
Rainfall 0.00 in
Snow Depth Not available.
UV 0 out of 12
Pollen 3.50 out of 12
Ozone Moderate
PM2.5 Good
Flu Activity Sporadic
METAR KAUN 250235Z AUTO 00000KT 10SM CLR 14/09 A2991 RMK AO1

More Conditions Fewer Conditions

Pressure 29.91 in
Visibility 10.0 miles
Clouds Clear
Dew Point 48 °F
Humidity 65%
Rainfall 0.00 in
Snow Depth Not available.
UV 0 out of 12
Pollen 3.50 out of 12
Ozone Moderate
PM2.5 Good
Flu Activity Sporadic
METAR KAUN 250235Z AUTO 00000KT 10SM CLR 14/09 A2991 RMK AO1

More Conditions Fewer Conditions

10-Day Weather Forecast

Almanac

Astronomy

Oct. 24, 2014 Rise Set
Actual Time 7:22 AM PDT 6:12 PM PDT
Civil Twilight 6:55 AM PDT 6:39 PM PDT
Nautical Twilight 6:24 AM PDT 7:10 PM PDT
Astronomical Twilight 5:53 AM PDT 7:41 PM PDT
Moon 8:06 AM PDT (10/24) 6:56 PM PDT (10/24)
Length of Visible Light 11h 44m
Length of Day
10h 49m
Tomorrow will be 2m 21s shorter.
New Moon, 2% of the Moon is Illuminated
Today
New Moon
Oct 30
First Quarter
Nov 6
Full
Nov 14
Last Quarter
Nov 22
New

Today's Extremes

State Highs State Lows

Community

WunderPhotos

Upload Photos

1,764,760 photos uploaded!

Nearby

Air Quality

  Air Quality AQ Index Pollutant
Yesterday Good
OZONE
Yesterday Good
PM2.5
Current Moderate
OZONE
Current Good
PM2.5
Friday Good
OZONE
Saturday Good
OZONE
Sunday Good
OZONE
Monday Good
OZONE
Tuesday Good
OZONE
Wednesday Good
OZONE

Snow Depth

Station Depth Elevation
Rubicon #2 0 in 7500 ft
Burnside Lake 0 in 8139 ft
Monitor Pass 0 in 8350 ft
Summit Meadow 1 in 9122 ft
Leavitt Lake 1 in 9400 ft

Earthquake Activity

City Distance Mag. Time & Date
Gerlach-Empire, Nevada 100 miles 2.5 7:16 AM PDT
2014-10-23
Minimum magnitude displayed is 2.5.

Coastal Water Temperatures

Place Temperature
No Stations Reporting

Nearby Weather Stations